San Bernardino, CA (92410)

2:38 AM PDT on September 21, 2014 (GMT -0700)
MesoWest San Bernardino CA US SGXWFO | Change Station
CLOSE
Current Station
Personal Weather Station
Location: San Bernardino, CA
Elevation: 1049 ft
Nearby Weather Stations

Elev 1049 ft 34.11 °N, 117.30 °W | Updated 49 minutes ago

Clear
Clear
66 °F
Feels Like 66 °F
N
0
Wind Variable Wind from North
Gusts 5.0 mph

Today
High -- | Low -- °F
--% Chance of Precip.
Yesterday
High -- | Low -- °F
Precip. -- in
6:36 AM 6:47 PM
Waning Crescent, 7% visible
Pressure 29.91 in
Visibility 10.0 miles
Clouds Clear
Dew Point 60 °F
Humidity 82%
Rainfall -999.00 in
Snow Depth 0 in , 0 in , 0 in
UV 0 out of 12
Pollen 6.80 out of 12
Ozone Good
PM2.5 Moderate
Flu Activity Not available.
METAR KRAL 210853Z AUTO 26004KT 10SM CLR 18/15 A2996 RMK AO2 SLP129 T01830150 51004

More Conditions Fewer Conditions

Pressure 29.91 in
Visibility 10.0 miles
Clouds Clear
Dew Point 60 °F
Humidity 82%
Rainfall -999.00 in
Snow Depth 0 in , 0 in , 0 in
UV 0 out of 12
Pollen 6.80 out of 12
Ozone Good
PM2.5 Moderate
Flu Activity Not available.
METAR KRAL 210853Z AUTO 26004KT 10SM CLR 18/15 A2996 RMK AO2 SLP129 T01830150 51004

More Conditions Fewer Conditions

10-Day Weather Forecast

Almanac

Astronomy

Sep. 21, 2014 Rise Set
Actual Time 6:36 AM PDT 6:47 PM PDT
Civil Twilight 6:11 AM PDT 7:12 PM PDT
Nautical Twilight 5:42 AM PDT 7:41 PM PDT
Astronomical Twilight 5:12 AM PDT 8:10 PM PDT
Moon 4:19 AM PDT 5:22 PM PDT
Length of Visible Light 13h 00m
Length of Day
12h 10m
Tomorrow will be 2m 7s shorter.
Waning Crescent, 7% of the Moon is Illuminated
Today
Waning Crescent
Sep 24
New
Oct 1
First Quarter
Oct 8
Full
Oct 15
Last Quarter

Today's Extremes

State Highs State Lows

Community

WunderPhotos

Upload Photos

1,755,106 photos uploaded!

Nearby

Air Quality

  Air Quality AQ Index Pollutant
Yesterday Good
PM10
Yesterday Moderate
OZONE
Current Moderate
PM2.5
Current Good
OZONE
Sunday Good
PM10
Sunday Good
OZONE
Sunday Good
CO
Sunday Good
NO2

Snow Depth

Station Depth Elevation
Leavitt Meadows 0 in 7200 ft
Tahoe City Cross 0 in 6750 ft
Rubicon #2 0 in 7500 ft
Monitor Pass 0 in 8350 ft
Forestdale Creek 0 in 8029 ft

Earthquake Activity

City Distance Mag. Time & Date
Inyokern, California 138 miles 3.1 5:33 PM PDT
2014-09-19
Aguanga, California 52 miles 2.5 1:38 AM PDT
2014-09-19
Minimum magnitude displayed is 2.5.

Coastal Water Temperatures

Place Temperature
No Stations Reporting

Nearby Weather Stations